• Join FlightAware (Why Join?)
  • Login
  • US Flag 
06:56PM EDT


 

Airport Tracker/Info


-or-


 

Live Flight TrackerFlight Track Log ✈ N21SF ✈ 03-May-2012 ✈ KCGF - KHLG

Flight Track Log - Related Links

Times and Time Zones

All times are in EDT time to prevent confusion due to time zone crossing. See the N21SF flight status page for this flight to view local times or setup timezone preferences in your user account.

Time Position Orientation Groundspeed Altitude Reporting Facility
EDT Latitude Longitude Course Direction KTS MPH feet Rate Location/Type
09:56PM 41.5539 -81.5017 209° Southwest 163 188 1,700  Level Cleveland Center
09:56PM 41.5247 -81.5233 175° South 203 234 2,700 3,360 Climbing Cleveland Center
09:57PM 41.4497 -81.5139 150° Southeast 237 273 7,500 3,180 Climbing Cleveland Center
09:58PM 41.4019 -81.4772 144° Southeast 288 331 8,600 720 Climbing Cleveland Center
09:59PM 41.3150 -81.3931 146° Southeast 343 395 9,000 120 Climbing Cleveland Center
10:00PM 41.2364 -81.3231 145° Southeast 328 377 9,000  Level Cleveland Center
10:01PM 41.1617 -81.2533 146° Southeast 322 371 9,000  Level Cleveland Center
10:02PM 41.0911 -81.1892 156° South 327 376 9,000  Level Cleveland Center
10:03PM 41.0100 -81.1417 159° South 312 359 9,000  Level Cleveland Center
10:04PM 40.9289 -81.0997 151° Southeast 312 359 9,000 -300 Level Cleveland Center
10:05PM 40.8522 -81.0442 148° Southeast 312 359 8,400 -780 Descending Cleveland Center
10:06PM 40.7772 -80.9833 150° Southeast 317 365 7,500 -900 Descending Cleveland Center
10:07PM 40.7003 -80.9256 149° Southeast 322 371 6,700 -840 Descending Cleveland Center
10:08PM 40.6275 -80.8675 150° Southeast 316 364 5,900 -660 Descending Cleveland Center
10:09PM 40.5547 -80.8125 149° Southeast 316 364 5,400 -600 Descending Cleveland Center
10:10PM 40.4861 -80.7578 151° Southeast 309 356 4,800 -600 Descending Cleveland Center
10:11PM 40.4153 -80.7058 149° Southeast 304 350 4,300 -540 Descending Cleveland Center
10:12PM 40.3464 -80.6511 149° Southeast 293 337 3,800 -600 Descending Cleveland Center
10:13PM 40.2797 -80.5994 199° South 287 330 3,100 -720 Descending Cleveland Center
10:21PM 39.6802 -80.8655 20° North  Level Estimated
10:22PM 40.1667 -80.6333 310° West  Level FlightAware Approximate
10:23PM 40.2213 -80.7183 130° Southeast  Level Estimated
10:24PM 40.1667 -80.6333 130° Southeast  Level FlightAware Approximate